createdAt,value
2022-08-17T00:01:52.043Z,99395.97
2022-08-17T00:04:21.817Z,99401.28
2022-08-17T00:06:53.270Z,99392.56
2022-08-17T00:09:21.565Z,99392.56
2022-08-17T00:12:34.907Z,99391.72
2022-08-17T00:14:39.556Z,99389.91
2022-08-17T00:17:08.324Z,99395.31
2022-08-17T00:19:36.466Z,99396.09
2022-08-17T00:22:32.140Z,99392.56
2022-08-17T00:24:55.710Z,99397.03
2022-08-17T00:27:24.117Z,99403.94
2022-08-17T00:29:52.506Z,99403.19
2022-08-17T00:33:14.381Z,99402.13
2022-08-17T00:35:11.297Z,99400.44
2022-08-17T00:37:41.835Z,99412.88
2022-08-17T00:40:13.097Z,99405.84
2022-08-17T00:42:42.065Z,99406.78
2022-08-17T00:45:20.305Z,99407.03
2022-08-17T00:47:49.566Z,99401.72
2022-08-17T00:50:20.015Z,99400.75
2022-08-17T00:52:55.859Z,99409.69
2022-08-17T00:55:25.238Z,99407.03
2022-08-17T00:57:58.536Z,99408.84
2022-08-17T01:00:28.788Z,99401.91
2022-08-17T01:03:01.317Z,99403.66
2022-08-17T01:05:33.045Z,99403.66
2022-08-17T01:08:03.547Z,99408.19
2022-08-17T01:10:58.482Z,99410.84
2022-08-17T01:13:27.196Z,99403.66
2022-08-17T01:16:00.678Z,99398.34
2022-08-17T01:18:29.596Z,99395.69
2022-08-17T01:21:04.245Z,99397.38
2022-08-17T01:23:33.815Z,99392.91
2022-08-17T01:26:05.445Z,99398.22
2022-08-17T01:28:54.974Z,99398.09
2022-08-17T01:31:28.885Z,99399.78
2022-08-17T01:33:59.530Z,99394.38
2022-08-17T01:36:30.955Z,99393.44
2022-08-17T01:39:00.756Z,99390.78
2022-08-17T01:41:30.559Z,99392.56
2022-08-17T01:44:06.735Z,99397.13
2022-08-17T01:46:37.635Z,99398.94
2022-08-17T01:49:09.635Z,99397.13
2022-08-17T01:51:38.498Z,99385.56
2022-08-17T01:54:11.845Z,99390.88
2022-08-17T01:56:41.227Z,99389.16
2022-08-17T01:59:10.104Z,99386.50
2022-08-17T02:01:38.859Z,99389.16
2022-08-17T02:04:09.196Z,99386.50
2022-08-17T02:06:52.485Z,99391.81
2022-08-17T02:09:26.189Z,99394.47
2022-08-17T02:12:37.613Z,99383.25
2022-08-17T02:14:48.694Z,99385.78
2022-08-17T02:17:16.895Z,99393.88
2022-08-17T02:19:45.074Z,99393.03
2022-08-17T02:22:13.556Z,99393.94
2022-08-17T02:25:00.720Z,99391.28
2022-08-17T02:27:30.133Z,99393.03
2022-08-17T02:29:58.434Z,99396.59
2022-08-17T02:32:28.784Z,99391.28
2022-08-17T02:34:58.017Z,99396.59
2022-08-17T02:37:27.385Z,99396.84
2022-08-17T02:39:58.485Z,99401.31
2022-08-17T02:42:30.166Z,99396.84
2022-08-17T02:44:58.484Z,99402.34
2022-08-17T02:47:26.797Z,99416.94
2022-08-17T02:49:55.891Z,99419.66
2022-08-17T02:52:42.907Z,99424.25
2022-08-17T02:55:17.475Z,99426.16
2022-08-17T02:57:46.434Z,99429.97
2022-08-17T03:00:18.015Z,99443.38
2022-08-17T03:02:46.704Z,99434.56
2022-08-17T03:05:18.235Z,99439.97
2022-08-17T03:07:46.625Z,99447.09
2022-08-17T03:10:16.504Z,99450.59
2022-08-17T03:12:46.185Z,99454.09
2022-08-17T03:15:16.536Z,99463.03
2022-08-17T03:17:45.570Z,99459.59
2022-08-17T03:20:16.134Z,99458.88
2022-08-17T03:22:48.122Z,99460.56
2022-08-17T03:25:26.788Z,99454.63
2022-08-17T03:27:56.003Z,99459.94
2022-08-17T03:30:25.425Z,99460.78
2022-08-17T03:32:55.893Z,99462.47
2022-08-17T03:35:26.455Z,99456.31
2022-08-17T03:38:00.117Z,99465.25
2022-08-17T03:40:34.789Z,99467.97
2022-08-17T03:43:22.140Z,99467.38
2022-08-17T03:46:19.989Z,99471.81
2022-08-17T03:49:14.178Z,99475.44
2022-08-17T03:52:00.024Z,99463.97
2022-08-17T03:54:45.604Z,99467.47
2022-08-17T03:57:15.185Z,99477.13
2022-08-17T03:59:43.281Z,99476.16
2022-08-17T04:02:17.838Z,99477.13
2022-08-17T04:04:46.634Z,99481.59
2022-08-17T04:07:14.806Z,99472.78
2022-08-17T04:09:43.644Z,99486.91
2022-08-17T04:12:12.135Z,99477.97
2022-08-17T04:14:52.609Z,99477.13
2022-08-17T04:17:24.826Z,99480.75
2022-08-17T04:19:53.496Z,99472.84
2022-08-17T04:22:32.205Z,99465.00
2022-08-17T04:25:04.185Z,99469.59
2022-08-17T04:27:32.374Z,99477.72
2022-08-17T04:30:02.255Z,99470.97
2022-08-17T04:33:05.527Z,99465.66
2022-08-17T04:35:21.745Z,99467.53
2022-08-17T04:37:50.313Z,99481.69
2022-08-17T04:40:37.349Z,99476.44
2022-08-17T04:43:08.681Z,99467.53
2022-08-17T04:45:55.097Z,99473.59
2022-08-17T04:48:35.597Z,99473.38
2022-08-17T04:51:09.678Z,99481.56
2022-08-17T04:53:39.244Z,99479.50
2022-08-17T04:56:07.913Z,99482.38
2022-08-17T04:58:40.220Z,99486.13
2022-08-17T05:01:09.977Z,99487.16
2022-08-17T05:03:38.796Z,99488.09
2022-08-17T05:06:07.474Z,99485.56
2022-08-17T05:08:35.873Z,99490.03
2022-08-17T05:11:04.137Z,99484.72
2022-08-17T05:13:32.799Z,99491.91
2022-08-17T05:16:02.936Z,99494.66
2022-08-17T05:18:32.948Z,99491.91
2022-08-17T05:21:01.267Z,99503.28
2022-08-17T05:23:41.698Z,99500.63
2022-08-17T05:26:25.524Z,99503.38
2022-08-17T05:28:57.293Z,99500.72
2022-08-17T05:31:28.868Z,99496.34
2022-08-17T05:33:59.186Z,99503.56
2022-08-17T05:36:42.984Z,99498.38
2022-08-17T05:39:15.990Z,99506.53
2022-08-17T05:41:45.889Z,99504.72
2022-08-17T05:44:14.085Z,99502.06
2022-08-17T05:46:46.996Z,99502.94
2022-08-17T05:49:20.025Z,99501.03
2022-08-17T05:52:04.515Z,99503.78
2022-08-17T05:54:44.649Z,99515.25
2022-08-17T05:57:28.424Z,99515.03
2022-08-17T06:00:06.257Z,99500.06
2022-08-17T06:02:48.116Z,99507.81
2022-08-17T06:05:34.286Z,99513.13
2022-08-17T06:08:24.548Z,99518.63
2022-08-17T06:11:00.364Z,99519.38
2022-08-17T06:13:45.736Z,99521.28
2022-08-17T06:16:33.776Z,99533.59
2022-08-17T06:19:08.046Z,99545.16
2022-08-17T06:21:40.546Z,99539.75
2022-08-17T06:24:20.247Z,99547.72
2022-08-17T06:26:48.957Z,99543.25
2022-08-17T06:29:30.064Z,99545.91
2022-08-17T06:31:58.574Z,99553.34
2022-08-17T06:34:26.797Z,99561.28
2022-08-17T06:37:07.806Z,99567.44
2022-08-17T06:39:45.783Z,99564.69
2022-08-17T06:43:02.205Z,99567.22
2022-08-17T06:45:18.088Z,99576.13
2022-08-17T06:47:57.460Z,99579.84
2022-08-17T06:50:32.146Z,99579.84
2022-08-17T06:53:07.005Z,99577.19
2022-08-17T06:55:46.635Z,99584.19
2022-08-17T06:58:16.902Z,99592.06
2022-08-17T07:00:48.807Z,99599.91
2022-08-17T07:03:30.367Z,99592.91
2022-08-17T07:06:04.243Z,99606.28
2022-08-17T07:08:43.944Z,99608.91
2022-08-17T07:11:17.585Z,99604.75
2022-08-17T07:13:52.256Z,99607.69
2022-08-17T07:16:26.060Z,99618.41
2022-08-17T07:18:55.965Z,99618.13
2022-08-17T07:21:39.690Z,99620.66
2022-08-17T07:24:29.547Z,99633.06
2022-08-17T07:27:20.908Z,99631.47
2022-08-17T07:29:54.776Z,99630.53
2022-08-17T07:32:27.027Z,99629.78
2022-08-17T07:35:07.479Z,99627.97
2022-08-17T07:37:39.986Z,99644.75
2022-08-17T07:40:21.690Z,99636.84
2022-08-17T07:43:18.799Z,99636.78
2022-08-17T07:46:14.296Z,99631.28
2022-08-17T07:48:48.616Z,99637.44
2022-08-17T07:51:20.424Z,99652.38
2022-08-17T07:53:50.209Z,99643.50
2022-08-17T07:56:40.416Z,99648.69
2022-08-17T07:59:13.796Z,99654.84
2022-08-17T08:01:47.324Z,99662.72
2022-08-17T08:04:59.376Z,99656.34
2022-08-17T08:07:29.596Z,99670.38
2022-08-17T08:10:11.209Z,99678.44
2022-08-17T08:12:43.747Z,99669.59
2022-08-17T08:15:18.984Z,99676.63
2022-08-17T08:17:51.964Z,99678.22
2022-08-17T08:20:51.358Z,99680.03
2022-08-17T08:23:26.518Z,99688.16
2022-08-17T08:26:05.282Z,99699.66
2022-08-17T08:28:43.674Z,99694.25
2022-08-17T08:31:24.455Z,99702.94
2022-08-17T08:34:09.164Z,99695.75
2022-08-17T08:37:17.723Z,99697.38
2022-08-17T08:39:59.660Z,99698.59
2022-08-17T08:42:37.228Z,99701.16
2022-08-17T08:45:15.230Z,99703.69
2022-08-17T08:47:58.148Z,99704.56
2022-08-17T08:50:43.046Z,99711.59
2022-08-17T08:53:23.666Z,99714.13
2022-08-17T08:55:56.432Z,99704.38
2022-08-17T08:58:41.337Z,99709.56
2022-08-17T09:01:19.564Z,99707.47
2022-08-17T09:04:19.988Z,99712.59
2022-08-17T09:07:04.924Z,99711.25
2022-08-17T09:09:43.755Z,99705.75
2022-08-17T09:12:22.308Z,99710.84
2022-08-17T09:14:57.914Z,99717.84
2022-08-17T09:17:37.287Z,99709.16
2022-08-17T09:20:27.206Z,99722.53
2022-08-17T09:23:02.705Z,99716.38
2022-08-17T09:25:36.190Z,99724.22
2022-08-17T09:28:08.086Z,99721.66
2022-08-17T09:30:45.467Z,99727.81
2022-08-17T09:33:18.736Z,99723.59
2022-08-17T09:35:51.178Z,99720.81
2022-08-17T09:38:31.744Z,99727.94
2022-08-17T09:41:10.464Z,99729.44
2022-08-17T09:43:46.026Z,99726.38
2022-08-17T09:46:21.386Z,99724.06
2022-08-17T09:48:56.274Z,99727.63
2022-08-17T09:51:32.237Z,99727.16
2022-08-17T09:54:20.957Z,99730.97
2022-08-17T09:57:18.436Z,99722.25
2022-08-17T09:59:58.564Z,99719.09
2022-08-17T10:02:44.006Z,99724.19
2022-08-17T10:05:18.666Z,99721.41
2022-08-17T10:07:56.045Z,99717.63
2022-08-17T10:10:29.681Z,99727.41
2022-08-17T10:13:09.641Z,99726.53
2022-08-17T10:15:47.065Z,99731.63
2022-08-17T10:18:34.344Z,99733.16
2022-08-17T10:21:25.825Z,99735.69
2022-08-17T10:24:22.021Z,99737.63
2022-08-17T10:26:56.215Z,99739.31
2022-08-17T10:29:40.830Z,99746.13
2022-08-17T10:32:27.276Z,99739.97
2022-08-17T10:35:14.600Z,99740.28
2022-08-17T10:38:03.815Z,99743.31
2022-08-17T10:40:39.075Z,99747.13
2022-08-17T10:43:24.669Z,99749.69
2022-08-17T10:46:14.532Z,99745.03
2022-08-17T10:49:15.426Z,99750.03
2022-08-17T10:51:45.953Z,99750.22
2022-08-17T10:54:38.054Z,99742.25
2022-08-17T10:57:48.040Z,99755.00
2022-08-17T11:00:50.660Z,99750.56
2022-08-17T11:03:23.596Z,99754.81
2022-08-17T11:06:01.043Z,99749.94
2022-08-17T11:09:03.875Z,99759.41
2022-08-17T11:11:47.497Z,99755.06
2022-08-17T11:14:23.880Z,99760.16
2022-08-17T11:17:11.338Z,99757.69
2022-08-17T11:20:16.895Z,99765.13
2022-08-17T11:23:05.005Z,99774.91
2022-08-17T11:25:39.491Z,99773.50
2022-08-17T11:28:15.215Z,99776.34
2022-08-17T11:30:48.470Z,99772.13
2022-08-17T11:33:54.485Z,99772.47
2022-08-17T11:36:38.557Z,99777.78
2022-08-17T11:39:26.528Z,99779.72
2022-08-17T11:42:01.144Z,99778.53
2022-08-17T11:44:41.516Z,99783.41
2022-08-17T11:47:34.014Z,99785.00
2022-08-17T11:50:39.024Z,99789.34
2022-08-17T11:53:07.995Z,99785.59
2022-08-17T11:56:09.804Z,99791.38
2022-08-17T11:58:42.064Z,99789.03
2022-08-17T12:01:13.666Z,99790.72
2022-08-17T12:03:54.260Z,99804.56
2022-08-17T12:06:42.371Z,99800.75
2022-08-17T12:09:15.727Z,99808.25
2022-08-17T12:12:11.160Z,99811.00
2022-08-17T12:15:08.155Z,99798.69
2022-08-17T12:17:41.586Z,99799.53
2022-08-17T12:20:17.871Z,99808.78
2022-08-17T12:22:54.859Z,99806.81
2022-08-17T12:25:32.907Z,99807.53
2022-08-17T12:28:06.046Z,99811.56
2022-08-17T12:30:38.814Z,99812.91
2022-08-17T12:33:25.008Z,99814.44
2022-08-17T12:35:59.740Z,99816.22
2022-08-17T12:38:33.065Z,99817.84
2022-08-17T12:41:24.454Z,99819.75
2022-08-17T12:44:01.624Z,99821.91
2022-08-17T12:46:35.808Z,99825.41
2022-08-17T12:49:26.492Z,99827.09
2022-08-17T12:52:03.534Z,99829.75
2022-08-17T12:54:39.734Z,99822.09
2022-08-17T12:57:14.134Z,99821.63
2022-08-17T12:59:45.331Z,99827.16
2022-08-17T13:02:22.835Z,99830.06
2022-08-17T13:04:51.428Z,99839.00
2022-08-17T13:07:43.252Z,99827.63
2022-08-17T13:10:18.419Z,99841.75
2022-08-17T13:12:47.974Z,99828.88
2022-08-17T13:15:23.254Z,99823.00
2022-08-17T13:18:05.497Z,99826.41
2022-08-17T13:20:36.364Z,99821.00
2022-08-17T13:23:12.316Z,99815.59
2022-08-17T13:25:41.177Z,99820.78
2022-08-17T13:28:35.535Z,99820.06
2022-08-17T13:31:24.208Z,99817.28
2022-08-17T13:33:53.823Z,99818.59
2022-08-17T13:36:32.145Z,99818.38
2022-08-17T13:39:13.059Z,99814.97
2022-08-17T13:41:41.254Z,99819.94
2022-08-17T13:44:35.016Z,99806.34
2022-08-17T13:47:04.093Z,99809.13
2022-08-17T13:49:48.445Z,99806.00
2022-08-17T13:52:35.184Z,99803.66
2022-08-17T13:55:09.765Z,99803.44
2022-08-17T13:57:38.186Z,99807.06
2022-08-17T14:00:12.345Z,99808.56
2022-08-17T14:02:41.462Z,99801.66
2022-08-17T14:05:12.203Z,99792.72
2022-08-17T14:07:41.243Z,99789.44
2022-08-17T14:10:13.836Z,99784.44
2022-08-17T14:12:44.645Z,99786.06
2022-08-17T14:15:15.447Z,99788.59
2022-08-17T14:17:43.614Z,99785.72
2022-08-17T14:20:14.447Z,99782.31
2022-08-17T14:22:49.419Z,99781.34
2022-08-17T14:25:21.012Z,99772.66
2022-08-17T14:27:53.352Z,99777.19
2022-08-17T14:30:25.058Z,99784.13
2022-08-17T14:32:54.311Z,99784.34
2022-08-17T14:35:27.446Z,99782.44
2022-08-17T14:37:55.725Z,99777.31
2022-08-17T14:40:25.441Z,99780.84
2022-08-17T14:42:55.632Z,99780.72
2022-08-17T14:45:30.231Z,99782.44
2022-08-17T14:48:02.710Z,99775.22
2022-08-17T14:50:35.426Z,99785.84
2022-08-17T14:53:05.163Z,99778.50
2022-08-17T14:55:33.995Z,99773.84
2022-08-17T14:58:03.971Z,99780.13
2022-08-17T15:00:32.875Z,99791.50
2022-08-17T15:03:02.937Z,99789.25
2022-08-17T15:05:34.333Z,99798.06
2022-08-17T15:08:04.215Z,99796.25
2022-08-17T15:10:33.356Z,99805.31
2022-08-17T15:13:01.896Z,99809.66
2022-08-17T15:15:30.883Z,99806.16
2022-08-17T15:17:59.837Z,99811.59
2022-08-17T15:20:30.293Z,99809.22
2022-08-17T15:23:00.109Z,99814.38
2022-08-17T15:25:31.873Z,99803.50
2022-08-17T15:28:01.335Z,99805.44
2022-08-17T15:30:29.695Z,99819.69
2022-08-17T15:32:59.461Z,99816.06
2022-08-17T15:35:31.646Z,99819.88
2022-08-17T15:38:11.091Z,99814.56
2022-08-17T15:40:43.010Z,99825.72
2022-08-17T15:43:13.787Z,99833.81
2022-08-17T15:45:42.081Z,99835.81
2022-08-17T15:48:11.386Z,99835.19
2022-08-17T15:50:39.507Z,99836.91
2022-08-17T15:53:09.607Z,99839.66
2022-08-17T15:55:38.649Z,99845.28
2022-08-17T15:58:07.078Z,99852.41
2022-08-17T16:00:47.137Z,99854.94
2022-08-17T16:03:56.020Z,99850.47
2022-08-17T16:06:09.876Z,99855.34
2022-08-17T16:08:43.448Z,99865.38
2022-08-17T16:11:12.354Z,99855.66
2022-08-17T16:13:41.660Z,99853.00
2022-08-17T16:16:16.816Z,99867.47
2022-08-17T16:18:45.025Z,99854.91
2022-08-17T16:21:29.722Z,99858.53
2022-08-17T16:24:13.530Z,99857.97
2022-08-17T16:26:42.371Z,99857.41
2022-08-17T16:29:10.628Z,99854.00
2022-08-17T16:31:38.825Z,99857.63
2022-08-17T16:34:16.413Z,99859.34
2022-08-17T16:36:53.689Z,99861.88
2022-08-17T16:39:26.415Z,99867.41
2022-08-17T16:41:55.655Z,99863.13
2022-08-17T16:44:24.237Z,99861.13
2022-08-17T16:46:52.677Z,99859.44
2022-08-17T16:49:36.173Z,99866.56
2022-08-17T16:52:09.695Z,99871.09
2022-08-17T16:54:43.840Z,99873.97
2022-08-17T16:57:13.056Z,99867.81
2022-08-17T16:59:44.924Z,99866.00
2022-08-17T17:02:17.474Z,99879.28
2022-08-17T17:04:53.228Z,99877.78
2022-08-17T17:07:37.163Z,99886.91
2022-08-17T17:10:10.593Z,99880.06
2022-08-17T17:13:01.724Z,99880.19
2022-08-17T17:15:39.615Z,99871.50
2022-08-17T17:18:12.663Z,99879.59
2022-08-17T17:20:48.745Z,99879.47
2022-08-17T17:23:32.957Z,99880.44
2022-08-17T17:26:12.884Z,99879.47
2022-08-17T17:28:56.416Z,99877.03
2022-08-17T17:31:31.684Z,99871.50
2022-08-17T17:34:04.285Z,99873.16
2022-08-17T17:36:38.196Z,99875.72
2022-08-17T17:39:11.412Z,99881.13
2022-08-17T17:41:47.683Z,99876.19
2022-08-17T17:44:19.814Z,99878.16
2022-08-17T17:46:54.135Z,99876.47
2022-08-17T17:49:22.515Z,99871.25
2022-08-17T17:52:09.454Z,99872.84
2022-08-17T17:54:58.445Z,99873.63
2022-08-17T17:57:44.824Z,99872.78
2022-08-17T18:00:18.215Z,99873.63
2022-08-17T18:03:03.216Z,99869.47
2022-08-17T18:05:48.231Z,99869.56
2022-08-17T18:08:34.718Z,99869.66
2022-08-17T18:11:15.674Z,99861.31
2022-08-17T18:14:05.418Z,99871.94
2022-08-17T18:16:36.026Z,99870.41
2022-08-17T18:19:04.106Z,99871.16
2022-08-17T18:21:38.849Z,99874.78
2022-08-17T18:24:10.530Z,99882.09
2022-08-17T18:26:45.133Z,99879.84
2022-08-17T18:29:41.575Z,99878.19
2022-08-17T18:32:18.262Z,99879.84
2022-08-17T18:34:49.182Z,99879.91
2022-08-17T18:37:32.888Z,99876.59
2022-08-17T18:40:09.211Z,99883.72
2022-08-17T18:42:38.685Z,99873.09
2022-08-17T18:45:08.882Z,99876.41
2022-08-17T18:47:37.115Z,99872.03
2022-08-17T18:50:24.015Z,99874.91
2022-08-17T18:52:52.865Z,99873.09
2022-08-17T18:55:27.758Z,99881.06
2022-08-17T18:58:00.397Z,99887.13
2022-08-17T19:00:40.265Z,99890.91
2022-08-17T19:03:25.284Z,99892.06
2022-08-17T19:05:55.899Z,99890.53
2022-08-17T19:08:33.304Z,99887.16
2022-08-17T19:11:06.336Z,99889.06
2022-08-17T19:13:39.764Z,99898.13
2022-08-17T19:16:17.577Z,99891.03
2022-08-17T19:18:49.658Z,99891.97
2022-08-17T19:21:24.047Z,99896.53
2022-08-17T19:24:00.189Z,99898.41
2022-08-17T19:26:53.977Z,99895.69
2022-08-17T19:29:26.292Z,99898.25
2022-08-17T19:31:58.791Z,99904.56
2022-08-17T19:34:33.956Z,99896.63
2022-08-17T19:37:09.028Z,99906.47
2022-08-17T19:39:47.926Z,99903.09
2022-08-17T19:42:31.179Z,99908.38
2022-08-17T19:45:08.620Z,99903.09
2022-08-17T19:47:58.579Z,99905.91
2022-08-17T19:50:39.109Z,99913.97
2022-08-17T19:53:19.747Z,99920.97
2022-08-17T19:55:58.774Z,99921.28
2022-08-17T19:58:41.256Z,99917.78
2022-08-17T20:01:18.038Z,99920.34
2022-08-17T20:03:56.454Z,99932.06
2022-08-17T20:06:26.136Z,99930.38
2022-08-17T20:09:04.615Z,99936.72
2022-08-17T20:11:41.276Z,99943.84
2022-08-17T20:14:15.722Z,99947.41
2022-08-17T20:16:43.974Z,99946.66
2022-08-17T20:19:23.065Z,99956.41
2022-08-17T20:21:57.746Z,99951.22
2022-08-17T20:24:34.805Z,99961.03
2022-08-17T20:27:16.434Z,99954.03
2022-08-17T20:30:07.316Z,99950.44
2022-08-17T20:32:50.166Z,99961.03
2022-08-17T20:35:26.267Z,99950.44
2022-08-17T20:37:59.142Z,99947.72
2022-08-17T20:40:35.160Z,99945.06
2022-08-17T20:43:40.937Z,99953.88
2022-08-17T20:46:19.777Z,99950.25
2022-08-17T20:48:52.716Z,99945.06
2022-08-17T20:51:30.515Z,99938.97
2022-08-17T20:54:08.184Z,99941.72
2022-08-17T20:56:57.730Z,99941.91
2022-08-17T21:00:14.156Z,99929.59
2022-08-17T21:02:44.742Z,99935.06
2022-08-17T21:05:34.494Z,99947.38
2022-08-17T21:08:15.975Z,99941.97
2022-08-17T21:10:46.847Z,99942.88
2022-08-17T21:13:34.917Z,99949.09
2022-08-17T21:16:11.316Z,99947.38
2022-08-17T21:18:50.471Z,99955.44
2022-08-17T21:21:26.395Z,99943.03
2022-08-17T21:24:11.939Z,99953.66
2022-08-17T21:26:51.110Z,99956.28
2022-08-17T21:29:31.046Z,99964.25
2022-08-17T21:32:28.425Z,99971.25
2022-08-17T21:35:34.044Z,99961.59
2022-08-17T21:38:14.699Z,99952.91
2022-08-17T21:40:50.013Z,99958.19
2022-08-17T21:43:24.991Z,99954.59
2022-08-17T21:46:00.385Z,99956.50
2022-08-17T21:48:31.207Z,99953.00
2022-08-17T21:51:10.467Z,99961.81
2022-08-17T21:53:46.365Z,99953.06
2022-08-17T21:56:24.326Z,99953.06
2022-08-17T21:58:58.607Z,99956.66
2022-08-17T22:01:29.771Z,99953.25
2022-08-17T22:04:03.272Z,99950.59
2022-08-17T22:06:35.232Z,99951.56
2022-08-17T22:09:13.665Z,99938.44
2022-08-17T22:12:03.408Z,99935.91
2022-08-17T22:14:52.798Z,99938.56
2022-08-17T22:17:26.080Z,99946.41
2022-08-17T22:19:56.983Z,99943.75
2022-08-17T22:22:30.286Z,99952.56
2022-08-17T22:25:01.488Z,99957.03
2022-08-17T22:27:57.915Z,99953.53
2022-08-17T22:30:32.449Z,99956.28
2022-08-17T22:33:02.376Z,99953.81
2022-08-17T22:35:37.197Z,99952.88
2022-08-17T22:38:28.256Z,99958.91
2022-08-17T22:41:13.832Z,99965.94
2022-08-17T22:43:44.883Z,99960.63
2022-08-17T22:46:14.974Z,99962.31
2022-08-17T22:48:50.151Z,99952.66
2022-08-17T22:51:22.117Z,99952.56
2022-08-17T22:54:11.216Z,99959.59
2022-08-17T22:57:04.866Z,99957.03
2022-08-17T22:59:40.224Z,99958.72
2022-08-17T23:02:17.893Z,99960.63
2022-08-17T23:04:48.957Z,99965.19
2022-08-17T23:07:17.595Z,99959.88
2022-08-17T23:09:46.277Z,99958.16
2022-08-17T23:12:28.026Z,99959.13
2022-08-17T23:15:02.307Z,99950.28
2022-08-17T23:17:36.885Z,99945.06
2022-08-17T23:20:08.340Z,99938.91
2022-08-17T23:22:38.267Z,99931.91
2022-08-17T23:25:27.006Z,99941.47
2022-08-17T23:27:55.277Z,99940.63
2022-08-17T23:30:25.474Z,99941.56
2022-08-17T23:32:54.489Z,99941.56
2022-08-17T23:35:39.845Z,99938.06
2022-08-17T23:38:10.446Z,99947.81
2022-08-17T23:40:39.479Z,99945.06
2022-08-17T23:43:24.605Z,99949.25
2022-08-17T23:45:57.396Z,99943.19
2022-08-17T23:48:35.133Z,99937.09
2022-08-17T23:51:09.081Z,99950.38
2022-08-17T23:53:40.305Z,99952.06
2022-08-17T23:56:11.098Z,99955.50
2022-08-17T23:58:42.132Z,99959.97
